Samus Swan — 9HA2333 — position and weather

sailwx.info

Track history (hours):
 
Tides and Currents Weather Stations Pressure Air Temp Water Temp Dewpoint Dewpoint Depression Visibility Wind Speed Wind Dir Waves Ship Positions

Samus Swan

Last reported at 2017-Jun-24 14:00 UTC. Time now 2017-Jun-24 19:04 UTC.
Position N 41°20' E 002°09'.

Length 106 m; draft 6.9 m.

Type: Tanker. MMSI: 248363000.

Date/timePositionNaut miles runAvg speedWind from/ knotsBaromVisibWave heightAir tempDewpointWater temp
2017-Jun-24 14:00N 41°20' E 002°09'1 1.9
2017-Jun-24 13:30N 41°20' E 002°10'5 9.3
2017-Jun-24 12:55N 41°14' E 002°11'511.8
2017-Jun-24 12:30N 41°09' E 002°11'5 9.9
2017-Jun-24 12:00N 41°05' E 002°10'3 5.8
2017-Jun-24 11:30N 41°02' E 002°09'510.9
2017-Jun-24 11:00N 40°57' E 002°05'611.4
2017-Jun-24 10:30N 40°52' E 002°02'611.5
2017-Jun-24 10:00N 40°47' E 001°58'611.5
2017-Jun-24 09:30N 40°42' E 001°54'611.3
2017-Jun-24 09:00N 40°37' E 001°51'511.0
2017-Jun-24 08:30N 40°32' E 001°47'510.8
2017-Jun-24 08:00N 40°28' E 001°44'510.8
2017-Jun-24 07:30N 40°23' E 001°40'510.8
2017-Jun-24 07:00N 40°18' E 001°37'511.0
2017-Jun-24 06:30N 40°13' E 001°34'611.1
2017-Jun-24 06:00N 40°08' E 001°30'611.4
2017-Jun-24 05:30N 40°03' E 001°26'611.5
2017-Jun-24 05:00N 39°58' E 001°23'611.4
2017-Jun-24 04:30N 39°53' E 001°19'611.3
2017-Jun-24 03:58N 39°48' E 001°15'611.3
2017-Jun-24 03:24N 39°43' E 001°11'2511.1
2017-Jun-24 01:11N 39°21' E 000°56'210.6
2017-Jun-24 00:59N 39°19' E 000°55'510.8
2017-Jun-24 00:30N 39°15' E 000°51'510.9
2017-Jun-24 00:00N 39°10' E 000°48'510.9
2017-Jun-23 23:30N 39°05' E 000°44'610.9
2017-Jun-23 23:00N 39°00' E 000°41'611.2
2017-Jun-23 22:30N 38°55' E 000°37'1311.4
2017-Jun-23 21:24N 38°44' E 000°30'711.4
2017-Jun-23 20:49N 38°39' E 000°25'411.2
2017-Jun-23 20:30N 38°36' E 000°23'611.1
2017-Jun-23 19:59N 38°31' E 000°19'511.1
2017-Jun-23 19:30N 38°27' E 000°15'611.3
2017-Jun-23 19:00N 38°22' E 000°11'611.2
2017-Jun-23 18:29N 38°17' E 000°07'511.2
2017-Jun-23 18:00N 38°13' E 000°03'511.0
2017-Jun-23 17:30N 38°08' W 000°01'611.0
2017-Jun-23 17:00N 38°03' W 000°05'611.1
2017-Jun-23 16:30N 37°59' W 000°09'611.3
2017-Jun-23 16:00N 37°54' W 000°13'611.7
2017-Jun-23 15:30N 37°49' W 000°17'712.0
2017-Jun-23 14:55N 37°43' W 000°22'1211.8
2017-Jun-23 13:52N 37°33' W 000°30'511.6
2017-Jun-23 13:27N 37°30' W 000°35'911.5
2017-Jun-23 12:43N 37°24' W 000°43'211.3
2017-Jun-23 12:30N 37°23' W 000°46'611.0
2017-Jun-23 11:56N 37°19' W 000°52'610.9
2017-Jun-23 11:23N 37°18' W 000°59'411.2
2017-Jun-23 11:00N 37°17' W 001°04'610.3
2017-Jun-23 10:27N 37°14' W 001°10'510.5
2017-Jun-23 10:00N 37°09' W 001°11'510.3
2017-Jun-23 09:30N 37°04' W 001°11'510.5
2017-Jun-23 09:00N 37°01' W 001°16'510.5
2017-Jun-23 08:30N 36°57' W 001°21'510.3
2017-Jun-23 07:59N 36°54' W 001°26'1410.6
2017-Jun-23 06:37N 36°44' W 001°39'110.8
2017-Jun-23 06:30N 36°43' W 001°40'1511.1
2017-Jun-23 05:06N 36°32' W 001°54'1611.0
2017-Jun-23 03:41N 36°23' W 002°09'210.6
2017-Jun-23 03:30N 36°22' W 002°11'611.5
2017-Jun-23 03:00N 36°21' W 002°18'14111.2
2017-Jun-22 14:29N 36°01' W 005°11'1212.9
2017-Jun-22 13:30N 35°58' W 005°26'1211.9
2017-Jun-22 12:32N 35°54' W 005°40'2 9.9
2017-Jun-22 12:22N 35°54' W 005°42'4310.4
2017-Jun-22 08:17N 35°58' W 006°34'1010.9
2017-Jun-22 07:20N 36°00' W 006°47'410.7
2017-Jun-22 07:00N 36°01' W 006°51'610.9
2017-Jun-22 06:26N 36°03' W 006°58'511.1
2017-Jun-22 05:57N 36°04' W 007°05'611.1
2017-Jun-22 05:23N 36°05' W 007°12'411.2
2017-Jun-22 05:00N 36°06' W 007°17'711.2
2017-Jun-22 04:25N 36°08' W 007°25'511.1
2017-Jun-22 04:00N 36°09' W 007°31'611.3
2017-Jun-22 03:29N 36°10' W 007°38'511.2
2017-Jun-22 03:00N 36°11' W 007°44'911.2
2017-Jun-22 02:13N 36°13' W 007°55'155 9.8
2017-Jun-21 10:16N 38°11' W 010°03'311.2
2017-Jun-21 10:00N 38°14' W 010°03'711.1
2017-Jun-21 09:21N 38°21' W 010°05'4311.1
2017-Jun-21 05:28N 39°04' W 010°12'  
2017-Jun-18 15:48N 49°10' W 005°05'311.0
2017-Jun-18 15:29N 49°12' W 005°01'610.8
2017-Jun-18 14:58N 49°15' W 004°53'1310.4
2017-Jun-18 13:41N 49°22' W 004°36'210.2
2017-Jun-18 13:30N 49°23' W 004°34'6 9.9
2017-Jun-18 12:56N 49°26' W 004°26'4 9.8
2017-Jun-18 12:30N 49°28' W 004°21'7 9.6
2017-Jun-18 11:48N 49°31' W 004°11'9 9.6
2017-Jun-18 10:51N 49°35' W 003°59'3 9.7
2017-Jun-18 10:30N 49°37' W 003°55'5 9.8
2017-Jun-18 10:00N 49°40' W 003°48'510.1
2017-Jun-18 09:30N 49°42' W 003°41'510.6
2017-Jun-18 08:59N 49°45' W 003°34'611.0
2017-Jun-18 08:26N 49°48' W 003°26'511.3
2017-Jun-18 08:00N 49°50' W 003°20'611.5
2017-Jun-18 07:30N 49°53' W 003°12'611.5
2017-Jun-18 07:00N 49°56' W 003°04'611.5
2017-Jun-18 06:30N 49°59' W 002°56'611.4
2017-Jun-18 06:00N 50°01' W 002°48'38 9.7
2017-Jun-18 02:05N 50°11' W 001°51'1 8.1
2017-Jun-18 02:00N 50°11' W 001°50'4 7.9
2017-Jun-18 01:26N 50°12' W 001°43'14 8.3
2017-Jun-17 23:47N 50°16' W 001°22'3 9.2
2017-Jun-17 23:26N 50°16' W 001°17'6 9.9
2017-Jun-17 22:49N 50°18' W 001°08'410.7
2017-Jun-17 22:29N 50°19' W 001°03'611.4
2017-Jun-17 21:56N 50°21' W 000°54'611.8
2017-Jun-17 21:27N 50°22' W 000°45'611.9
2017-Jun-17 20:59N 50°24' W 000°37'712.0
2017-Jun-17 20:26N 50°25' W 000°26'511.8
2017-Jun-17 20:00N 50°27' W 000°19'611.6
2017-Jun-17 19:30N 50°28' W 000°10'611.3
2017-Jun-17 19:00N 50°30' W 000°01'611.1
2017-Jun-17 18:30N 50°31' E 000°07'511.0
2017-Jun-17 18:00N 50°33' E 000°15'510.7
2017-Jun-17 17:30N 50°34' E 000°23'510.3
2017-Jun-17 17:00N 50°35' E 000°31'5 9.8
2017-Jun-17 16:30N 50°37' E 000°38'2110.0
2017-Jun-17 14:24N 50°49' E 001°06'1010.9
2017-Jun-17 13:30N 50°55' E 001°18'612.5
2017-Jun-17 13:00N 50°60' E 001°25'713.2
2017-Jun-17 12:30N 51°04' E 001°32'612.9
2017-Jun-17 12:00N 51°09' E 001°39'612.5
2017-Jun-17 11:30N 51°14' E 001°46'612.0
2017-Jun-17 11:00N 51°19' E 001°52'611.3
2017-Jun-17 10:30N 51°23' E 001°57'5 9.6
2017-Jun-17 10:00N 51°24' E 002°05'510.7
2017-Jun-17 09:30N 51°22' E 002°12'5 9.7
2017-Jun-17 09:00N 51°21' E 002°20'510.0
2017-Jun-17 08:30N 51°22' E 002°28'5 9.7
2017-Jun-17 08:00N 51°23' E 002°35'5 9.4
2017-Jun-17 07:30N 51°22' E 002°43'4 8.4
2017-Jun-17 07:00N 51°23' E 002°49'510.3
2017-Jun-17 06:30N 51°23' E 002°58'5 9.9
2017-Jun-17 06:00N 51°24' E 003°05'5 9.9
2017-Jun-17 05:30N 51°25' E 003°13'5 9.2
2017-Jun-17 05:00N 51°25' E 003°21'5 9.1
2017-Jun-17 04:30N 51°25' E 003°28'4 8.9
2017-Jun-17 04:00N 51°26' E 003°35'4 8.3
2017-Jun-17 03:30N 51°26' E 003°41'5 9.9
2017-Jun-17 03:00N 51°22' E 003°46'5 9.8
2017-Jun-17 02:30N 51°22' E 003°54'510.3
2017-Jun-17 02:00N 51°26' E 003°58'5 9.1
2017-Jun-17 01:30N 51°23' E 004°03'611.2
2017-Jun-17 01:00N 51°24' E 004°12'612.0
2017-Jun-17 00:30N 51°18' E 004°17'3 5.2
2017-Jun-17 00:01N 51°17' E 004°20'0 0.0
2017-Jun-16 23:30N 51°17' E 004°20'0 0.4
2017-Jun-16 23:01N 51°17' E 004°20'0 0.3
2017-Jun-16 22:24N 51°17' E 004°20'0 0.0
2017-Jun-16 21:51N 51°17' E 004°20'0 0.0
2017-Jun-16 21:27N 51°17' E 004°20'0 0.0
2017-Jun-16 21:00N 51°17' E 004°20'0 0.0
2017-Jun-16 20:24N 51°17' E 004°20'0 0.0
2017-Jun-16 20:00N 51°17' E 004°20'0 0.0
2017-Jun-16 19:24N 51°17' E 004°20'0 0.0
2017-Jun-16 18:54N 51°17' E 004°20'0 0.0
2017-Jun-16 18:30N 51°17' E 004°20'0 0.0
2017-Jun-16 18:00N 51°17' E 004°20'0 0.0
2017-Jun-16 17:30N 51°17' E 004°20'0 0.0
2017-Jun-16 16:54N 51°17' E 004°20'0 0.0
2017-Jun-16 16:30N 51°17' E 004°20'0 0.0
2017-Jun-16 14:54N 51°17' E 004°20'0 0.0
2017-Jun-16 14:00N 51°17' E 004°20'0 0.0
2017-Jun-16 13:30N 51°17' E 004°20'0 0.0
2017-Jun-16 13:00N 51°17' E 004°20'0 0.0
2017-Jun-16 10:36N 51°17' E 004°20'0 0.0
2017-Jun-16 09:24N 51°17' E 004°20'0 0.0
2017-Jun-16 08:54N 51°17' E 004°20'0 0.0
2017-Jun-16 08:30N 51°17' E 004°20'0 0.0
2017-Jun-16 07:24N 51°17' E 004°20'0 0.0
2017-Jun-16 07:00N 51°17' E 004°20'0 0.0
2017-Jun-16 05:54N 51°17' E 004°20'0 0.0
2017-Jun-16 05:27N 51°17' E 004°20'0 0.0
2017-Jun-16 05:00N 51°17' E 004°20'0 0.0
2017-Jun-16 04:30N 51°17' E 004°20'0 0.0
2017-Jun-16 04:00N 51°17' E 004°20'0 0.0
2017-Jun-16 03:30N 51°17' E 004°20'0 0.0
2017-Jun-16 02:48N 51°17' E 004°20'0 0.0
2017-Jun-16 02:30N 51°17' E 004°20'0 0.0
2017-Jun-16 02:00N 51°17' E 004°20'0 0.0
2017-Jun-16 01:30N 51°17' E 004°20'0 0.0
2017-Jun-16 01:00N 51°17' E 004°20'0 0.0
2017-Jun-16 00:30N 51°17' E 004°20'0 0.0
2017-Jun-16 00:00N 51°17' E 004°20'0 0.0
2017-Jun-15 23:30N 51°17' E 004°20'0 0.0
2017-Jun-15 22:54N 51°17' E 004°20'0 0.0
2017-Jun-15 22:18N 51°17' E 004°20'0 0.0
2017-Jun-15 15:06N 51°17' E 004°20'0 0.0
2017-Jun-15 14:46N 51°17' E 004°20'0 0.5
2017-Jun-15 14:01N 51°16' E 004°20'2 3.6
2017-Jun-15 13:30N 51°15' E 004°23'0 0.0
2017-Jun-15 12:59N 51°15' E 004°23'0 0.0
2017-Jun-15 12:29N 51°15' E 004°23'0 0.0
2017-Jun-15 11:59N 51°15' E 004°23'0 0.0
2017-Jun-15 11:29N 51°15' E 004°23'0 0.0
2017-Jun-15 10:59N 51°15' E 004°23'0 0.0
2017-Jun-15 10:29N 51°15' E 004°23'0 0.0
2017-Jun-15 09:59N 51°15' E 004°23'0 0.0
2017-Jun-15 09:29N 51°15' E 004°23'0 0.0
2017-Jun-15 08:59N 51°15' E 004°23'0 0.0
2017-Jun-15 08:26N 51°15' E 004°23'0 0.0
2017-Jun-15 07:59N 51°15' E 004°23'0 0.0
2017-Jun-15 07:29N 51°15' E 004°23'0 0.0
2017-Jun-15 06:59N 51°15' E 004°23'0 0.0
2017-Jun-15 06:29N 51°15' E 004°23'0 0.0
2017-Jun-15 05:59N 51°15' E 004°23'0 0.0
2017-Jun-15 05:29N 51°15' E 004°23'0 0.0
2017-Jun-15 04:59N 51°15' E 004°23'0 0.0
2017-Jun-15 04:29N 51°15' E 004°23'0 0.0
2017-Jun-15 03:59N 51°15' E 004°23'0 0.0
2017-Jun-15 03:29N 51°15' E 004°23'0 0.0
2017-Jun-15 02:59N 51°15' E 004°23'0 0.0
2017-Jun-15 02:29N 51°15' E 004°23'0 0.0
2017-Jun-15 01:59N 51°15' E 004°23'0 0.0
2017-Jun-15 01:29N 51°15' E 004°23'0 0.0
2017-Jun-15 00:59N 51°15' E 004°23'0 0.0
2017-Jun-15 00:29N 51°15' E 004°23'0 0.0
2017-Jun-14 23:59N 51°15' E 004°23'0 0.0
2017-Jun-14 23:29N 51°15' E 004°23'0 0.0
2017-Jun-14 22:59N 51°15' E 004°23'0 0.0
2017-Jun-14 22:29N 51°15' E 004°23'0 0.0
2017-Jun-14 21:59N 51°15' E 004°23'0 0.0
2017-Jun-14 21:29N 51°15' E 004°23'0 0.0
2017-Jun-14 20:59N 51°15' E 004°23'0 0.0
2017-Jun-14 20:29N 51°15' E 004°23'0 0.3
2017-Jun-14 19:56N 51°15' E 004°23'0 0.0
2017-Jun-14 19:29N 51°15' E 004°23'0 0.0
2017-Jun-14 18:59N 51°15' E 004°23'0 0.0
2017-Jun-14 18:29N 51°15' E 004°23'0 0.0
2017-Jun-14 17:59N 51°15' E 004°23'0 0.0
2017-Jun-14 17:29N 51°15' E 004°23'0 0.0
2017-Jun-14 16:59N 51°15' E 004°23'0 0.0
2017-Jun-14 16:29N 51°15' E 004°23'0 0.0
2017-Jun-14 15:59N 51°15' E 004°23'0 0.0
2017-Jun-14 15:29N 51°15' E 004°23'0 0.0
2017-Jun-14 14:56N 51°15' E 004°23'  
Track history (hours):
 
Tides and Currents Weather Stations Pressure Air Temp Water Temp Dewpoint Dewpoint Depression Visibility Wind Speed Wind Dir Waves Ship Positions

Samus Swan

Last reported at 2017-Jun-24 14:00 UTC. Time now 2017-Jun-24 19:04 UTC.
Position N 41°20' E 002°09'.

Length 106 m; draft 6.9 m.

Type: Tanker. MMSI: 248363000.

Date/timePositionNaut miles runAvg speedWind from/ knotsBaromVisibWave heightAir tempDewpointWater temp
2017-Jun-24 14:00N 41°20' E 002°09'1 1.9
2017-Jun-24 13:30N 41°20' E 002°10'5 9.3
2017-Jun-24 12:55N 41°14' E 002°11'511.8
2017-Jun-24 12:30N 41°09' E 002°11'5 9.9
2017-Jun-24 12:00N 41°05' E 002°10'3 5.8
2017-Jun-24 11:30N 41°02' E 002°09'510.9
2017-Jun-24 11:00N 40°57' E 002°05'611.4
2017-Jun-24 10:30N 40°52' E 002°02'611.5
2017-Jun-24 10:00N 40°47' E 001°58'611.5
2017-Jun-24 09:30N 40°42' E 001°54'611.3
2017-Jun-24 09:00N 40°37' E 001°51'511.0
2017-Jun-24 08:30N 40°32' E 001°47'510.8
2017-Jun-24 08:00N 40°28' E 001°44'510.8
2017-Jun-24 07:30N 40°23' E 001°40'510.8
2017-Jun-24 07:00N 40°18' E 001°37'511.0
2017-Jun-24 06:30N 40°13' E 001°34'611.1
2017-Jun-24 06:00N 40°08' E 001°30'611.4
2017-Jun-24 05:30N 40°03' E 001°26'611.5
2017-Jun-24 05:00N 39°58' E 001°23'611.4
2017-Jun-24 04:30N 39°53' E 001°19'611.3
2017-Jun-24 03:58N 39°48' E 001°15'611.3
2017-Jun-24 03:24N 39°43' E 001°11'2511.1
2017-Jun-24 01:11N 39°21' E 000°56'210.6
2017-Jun-24 00:59N 39°19' E 000°55'510.8
2017-Jun-24 00:30N 39°15' E 000°51'510.9
2017-Jun-24 00:00N 39°10' E 000°48'510.9
2017-Jun-23 23:30N 39°05' E 000°44'610.9
2017-Jun-23 23:00N 39°00' E 000°41'611.2
2017-Jun-23 22:30N 38°55' E 000°37'1311.4
2017-Jun-23 21:24N 38°44' E 000°30'711.4
2017-Jun-23 20:49N 38°39' E 000°25'411.2
2017-Jun-23 20:30N 38°36' E 000°23'611.1
2017-Jun-23 19:59N 38°31' E 000°19'511.1
2017-Jun-23 19:30N 38°27' E 000°15'611.3
2017-Jun-23 19:00N 38°22' E 000°11'611.2
2017-Jun-23 18:29N 38°17' E 000°07'511.2
2017-Jun-23 18:00N 38°13' E 000°03'511.0
2017-Jun-23 17:30N 38°08' W 000°01'611.0
2017-Jun-23 17:00N 38°03' W 000°05'611.1
2017-Jun-23 16:30N 37°59' W 000°09'611.3
2017-Jun-23 16:00N 37°54' W 000°13'611.7
2017-Jun-23 15:30N 37°49' W 000°17'712.0
2017-Jun-23 14:55N 37°43' W 000°22'1211.8
2017-Jun-23 13:52N 37°33' W 000°30'511.6
2017-Jun-23 13:27N 37°30' W 000°35'911.5
2017-Jun-23 12:43N 37°24' W 000°43'211.3
2017-Jun-23 12:30N 37°23' W 000°46'611.0
2017-Jun-23 11:56N 37°19' W 000°52'610.9
2017-Jun-23 11:23N 37°18' W 000°59'411.2
2017-Jun-23 11:00N 37°17' W 001°04'610.3
2017-Jun-23 10:27N 37°14' W 001°10'510.5
2017-Jun-23 10:00N 37°09' W 001°11'510.3
2017-Jun-23 09:30N 37°04' W 001°11'510.5
2017-Jun-23 09:00N 37°01' W 001°16'510.5
2017-Jun-23 08:30N 36°57' W 001°21'510.3
2017-Jun-23 07:59N 36°54' W 001°26'1410.6
2017-Jun-23 06:37N 36°44' W 001°39'110.8
2017-Jun-23 06:30N 36°43' W 001°40'1511.1
2017-Jun-23 05:06N 36°32' W 001°54'1611.0
2017-Jun-23 03:41N 36°23' W 002°09'210.6
2017-Jun-23 03:30N 36°22' W 002°11'611.5
2017-Jun-23 03:00N 36°21' W 002°18'14111.2
2017-Jun-22 14:29N 36°01' W 005°11'1212.9
2017-Jun-22 13:30N 35°58' W 005°26'1211.9
2017-Jun-22 12:32N 35°54' W 005°40'2 9.9
2017-Jun-22 12:22N 35°54' W 005°42'4310.4
2017-Jun-22 08:17N 35°58' W 006°34'1010.9
2017-Jun-22 07:20N 36°00' W 006°47'410.7
2017-Jun-22 07:00N 36°01' W 006°51'610.9
2017-Jun-22 06:26N 36°03' W 006°58'511.1
2017-Jun-22 05:57N 36°04' W 007°05'611.1
2017-Jun-22 05:23N 36°05' W 007°12'411.2
2017-Jun-22 05:00N 36°06' W 007°17'711.2
2017-Jun-22 04:25N 36°08' W 007°25'511.1
2017-Jun-22 04:00N 36°09' W 007°31'611.3
2017-Jun-22 03:29N 36°10' W 007°38'511.2
2017-Jun-22 03:00N 36°11' W 007°44'911.2
2017-Jun-22 02:13N 36°13' W 007°55'155 9.8
2017-Jun-21 10:16N 38°11' W 010°03'311.2
2017-Jun-21 10:00N 38°14' W 010°03'711.1
2017-Jun-21 09:21N 38°21' W 010°05'4311.1
2017-Jun-21 05:28N 39°04' W 010°12'  
2017-Jun-18 15:48N 49°10' W 005°05'311.0
2017-Jun-18 15:29N 49°12' W 005°01'610.8
2017-Jun-18 14:58N 49°15' W 004°53'1310.4
2017-Jun-18 13:41N 49°22' W 004°36'210.2
2017-Jun-18 13:30N 49°23' W 004°34'6 9.9
2017-Jun-18 12:56N 49°26' W 004°26'4 9.8
2017-Jun-18 12:30N 49°28' W 004°21'7 9.6
2017-Jun-18 11:48N 49°31' W 004°11'9 9.6
2017-Jun-18 10:51N 49°35' W 003°59'3 9.7
2017-Jun-18 10:30N 49°37' W 003°55'5 9.8
2017-Jun-18 10:00N 49°40' W 003°48'510.1
2017-Jun-18 09:30N 49°42' W 003°41'510.6
2017-Jun-18 08:59N 49°45' W 003°34'611.0
2017-Jun-18 08:26N 49°48' W 003°26'511.3
2017-Jun-18 08:00N 49°50' W 003°20'611.5
2017-Jun-18 07:30N 49°53' W 003°12'611.5
2017-Jun-18 07:00N 49°56' W 003°04'611.5
2017-Jun-18 06:30N 49°59' W 002°56'611.4
2017-Jun-18 06:00N 50°01' W 002°48'38 9.7
2017-Jun-18 02:05N 50°11' W 001°51'1 8.1
2017-Jun-18 02:00N 50°11' W 001°50'4 7.9
2017-Jun-18 01:26N 50°12' W 001°43'14 8.3
2017-Jun-17 23:47N 50°16' W 001°22'3 9.2
2017-Jun-17 23:26N 50°16' W 001°17'6 9.9
2017-Jun-17 22:49N 50°18' W 001°08'410.7
2017-Jun-17 22:29N 50°19' W 001°03'611.4
2017-Jun-17 21:56N 50°21' W 000°54'611.8
2017-Jun-17 21:27N 50°22' W 000°45'611.9
2017-Jun-17 20:59N 50°24' W 000°37'712.0
2017-Jun-17 20:26N 50°25' W 000°26'511.8
2017-Jun-17 20:00N 50°27' W 000°19'611.6
2017-Jun-17 19:30N 50°28' W 000°10'611.3
2017-Jun-17 19:00N 50°30' W 000°01'611.1
2017-Jun-17 18:30N 50°31' E 000°07'511.0
2017-Jun-17 18:00N 50°33' E 000°15'510.7
2017-Jun-17 17:30N 50°34' E 000°23'510.3
2017-Jun-17 17:00N 50°35' E 000°31'5 9.8
2017-Jun-17 16:30N 50°37' E 000°38'2110.0
2017-Jun-17 14:24N 50°49' E 001°06'1010.9
2017-Jun-17 13:30N 50°55' E 001°18'612.5
2017-Jun-17 13:00N 50°60' E 001°25'713.2
2017-Jun-17 12:30N 51°04' E 001°32'612.9
2017-Jun-17 12:00N 51°09' E 001°39'612.5
2017-Jun-17 11:30N 51°14' E 001°46'612.0
2017-Jun-17 11:00N 51°19' E 001°52'611.3
2017-Jun-17 10:30N 51°23' E 001°57'5 9.6
2017-Jun-17 10:00N 51°24' E 002°05'510.7
2017-Jun-17 09:30N 51°22' E 002°12'5 9.7
2017-Jun-17 09:00N 51°21' E 002°20'510.0
2017-Jun-17 08:30N 51°22' E 002°28'5 9.7
2017-Jun-17 08:00N 51°23' E 002°35'5 9.4
2017-Jun-17 07:30N 51°22' E 002°43'4 8.4
2017-Jun-17 07:00N 51°23' E 002°49'510.3
2017-Jun-17 06:30N 51°23' E 002°58'5 9.9
2017-Jun-17 06:00N 51°24' E 003°05'5 9.9
2017-Jun-17 05:30N 51°25' E 003°13'5 9.2
2017-Jun-17 05:00N 51°25' E 003°21'5 9.1
2017-Jun-17 04:30N 51°25' E 003°28'4 8.9
2017-Jun-17 04:00N 51°26' E 003°35'4 8.3
2017-Jun-17 03:30N 51°26' E 003°41'5 9.9
2017-Jun-17 03:00N 51°22' E 003°46'5 9.8
2017-Jun-17 02:30N 51°22' E 003°54'510.3
2017-Jun-17 02:00N 51°26' E 003°58'5 9.1
2017-Jun-17 01:30N 51°23' E 004°03'611.2
2017-Jun-17 01:00N 51°24' E 004°12'612.0
2017-Jun-17 00:30N 51°18' E 004°17'3 5.2
2017-Jun-17 00:01N 51°17' E 004°20'0 0.0
2017-Jun-16 23:30N 51°17' E 004°20'0 0.4
2017-Jun-16 23:01N 51°17' E 004°20'0 0.3
2017-Jun-16 22:24N 51°17' E 004°20'0 0.0
2017-Jun-16 21:51N 51°17' E 004°20'0 0.0
2017-Jun-16 21:27N 51°17' E 004°20'0 0.0
2017-Jun-16 21:00N 51°17' E 004°20'0 0.0
2017-Jun-16 20:24N 51°17' E 004°20'0 0.0
2017-Jun-16 20:00N 51°17' E 004°20'0 0.0
2017-Jun-16 19:24N 51°17' E 004°20'0 0.0
2017-Jun-16 18:54N 51°17' E 004°20'0 0.0
2017-Jun-16 18:30N 51°17' E 004°20'0 0.0
2017-Jun-16 18:00N 51°17' E 004°20'0 0.0
2017-Jun-16 17:30N 51°17' E 004°20'0 0.0
2017-Jun-16 16:54N 51°17' E 004°20'0 0.0
2017-Jun-16 16:30N 51°17' E 004°20'0 0.0
2017-Jun-16 14:54N 51°17' E 004°20'0 0.0
2017-Jun-16 14:00N 51°17' E 004°20'0 0.0
2017-Jun-16 13:30N 51°17' E 004°20'0 0.0
2017-Jun-16 13:00N 51°17' E 004°20'0 0.0
2017-Jun-16 10:36N 51°17' E 004°20'0 0.0
2017-Jun-16 09:24N 51°17' E 004°20'0 0.0
2017-Jun-16 08:54N 51°17' E 004°20'0 0.0
2017-Jun-16 08:30N 51°17' E 004°20'0 0.0
2017-Jun-16 07:24N 51°17' E 004°20'0 0.0
2017-Jun-16 07:00N 51°17' E 004°20'0 0.0
2017-Jun-16 05:54N 51°17' E 004°20'0 0.0
2017-Jun-16 05:27N 51°17' E 004°20'0 0.0
2017-Jun-16 05:00N 51°17' E 004°20'0 0.0
2017-Jun-16 04:30N 51°17' E 004°20'0 0.0
2017-Jun-16 04:00N 51°17' E 004°20'0 0.0
2017-Jun-16 03:30N 51°17' E 004°20'0 0.0
2017-Jun-16 02:48N 51°17' E 004°20'0 0.0
2017-Jun-16 02:30N 51°17' E 004°20'0 0.0
2017-Jun-16 02:00N 51°17' E 004°20'0 0.0
2017-Jun-16 01:30N 51°17' E 004°20'0 0.0
2017-Jun-16 01:00N 51°17' E 004°20'0 0.0
2017-Jun-16 00:30N 51°17' E 004°20'0 0.0
2017-Jun-16 00:00N 51°17' E 004°20'0 0.0
2017-Jun-15 23:30N 51°17' E 004°20'0 0.0
2017-Jun-15 22:54N 51°17' E 004°20'0 0.0
2017-Jun-15 22:18N 51°17' E 004°20'0 0.0
2017-Jun-15 15:06N 51°17' E 004°20'0 0.0
2017-Jun-15 14:46N 51°17' E 004°20'0 0.5
2017-Jun-15 14:01N 51°16' E 004°20'2 3.6
2017-Jun-15 13:30N 51°15' E 004°23'0 0.0
2017-Jun-15 12:59N 51°15' E 004°23'0 0.0
2017-Jun-15 12:29N 51°15' E 004°23'0 0.0
2017-Jun-15 11:59N 51°15' E 004°23'0 0.0
2017-Jun-15 11:29N 51°15' E 004°23'0 0.0
2017-Jun-15 10:59N 51°15' E 004°23'0 0.0
2017-Jun-15 10:29N 51°15' E 004°23'0 0.0
2017-Jun-15 09:59N 51°15' E 004°23'0 0.0
2017-Jun-15 09:29N 51°15' E 004°23'0 0.0
2017-Jun-15 08:59N 51°15' E 004°23'0 0.0
2017-Jun-15 08:26N 51°15' E 004°23'0 0.0
2017-Jun-15 07:59N 51°15' E 004°23'0 0.0
2017-Jun-15 07:29N 51°15' E 004°23'0 0.0
2017-Jun-15 06:59N 51°15' E 004°23'0 0.0
2017-Jun-15 06:29N 51°15' E 004°23'0 0.0
2017-Jun-15 05:59N 51°15' E 004°23'0 0.0
2017-Jun-15 05:29N 51°15' E 004°23'0 0.0
2017-Jun-15 04:59N 51°15' E 004°23'0 0.0
2017-Jun-15 04:29N 51°15' E 004°23'0 0.0
2017-Jun-15 03:59N 51°15' E 004°23'0 0.0
2017-Jun-15 03:29N 51°15' E 004°23'0 0.0
2017-Jun-15 02:59N 51°15' E 004°23'0 0.0
2017-Jun-15 02:29N 51°15' E 004°23'0 0.0
2017-Jun-15 01:59N 51°15' E 004°23'0 0.0
2017-Jun-15 01:29N 51°15' E 004°23'0 0.0
2017-Jun-15 00:59N 51°15' E 004°23'0 0.0
2017-Jun-15 00:29N 51°15' E 004°23'0 0.0
2017-Jun-14 23:59N 51°15' E 004°23'0 0.0
2017-Jun-14 23:29N 51°15' E 004°23'0 0.0
2017-Jun-14 22:59N 51°15' E 004°23'0 0.0
2017-Jun-14 22:29N 51°15' E 004°23'0 0.0
2017-Jun-14 21:59N 51°15' E 004°23'0 0.0
2017-Jun-14 21:29N 51°15' E 004°23'0 0.0
2017-Jun-14 20:59N 51°15' E 004°23'0 0.0
2017-Jun-14 20:29N 51°15' E 004°23'0 0.3
2017-Jun-14 19:56N 51°15' E 004°23'0 0.0
2017-Jun-14 19:29N 51°15' E 004°23'0 0.0
2017-Jun-14 18:59N 51°15' E 004°23'0 0.0
2017-Jun-14 18:29N 51°15' E 004°23'0 0.0
2017-Jun-14 17:59N 51°15' E 004°23'0 0.0
2017-Jun-14 17:29N 51°15' E 004°23'0 0.0
2017-Jun-14 16:59N 51°15' E 004°23'0 0.0
2017-Jun-14 16:29N 51°15' E 004°23'0 0.0
2017-Jun-14 15:59N 51°15' E 004°23'0 0.0
2017-Jun-14 15:29N 51°15' E 004°23'0 0.0
2017-Jun-14 14:56N 51°15' E 004°23'  

Dump ship's entire track history